createdAt,value
2022-10-17T00:00:07.730Z,17.80
2022-10-17T00:02:34.485Z,17.81
2022-10-17T00:05:01.173Z,17.80
2022-10-17T00:07:28.139Z,17.79
2022-10-17T00:09:55.068Z,17.79
2022-10-17T00:12:21.805Z,17.80
2022-10-17T00:14:48.525Z,17.80
2022-10-17T00:17:15.676Z,17.79
2022-10-17T00:19:42.398Z,17.78
2022-10-17T00:22:09.111Z,17.75
2022-10-17T00:24:35.850Z,17.72
2022-10-17T00:27:03.013Z,17.70
2022-10-17T00:29:29.724Z,17.67
2022-10-17T00:31:57.140Z,17.66
2022-10-17T00:34:24.702Z,17.65
2022-10-17T00:36:51.428Z,17.66
2022-10-17T00:39:18.166Z,17.68
2022-10-17T00:41:44.841Z,17.69
2022-10-17T00:44:29.762Z,17.69
2022-10-17T00:47:05.025Z,17.66
2022-10-17T00:49:34.157Z,17.66
2022-10-17T00:52:03.730Z,17.65
2022-10-17T00:54:35.371Z,17.63
2022-10-17T00:57:02.371Z,17.61
2022-10-17T00:59:29.656Z,17.61
2022-10-17T01:02:23.122Z,17.59
2022-10-17T01:04:51.392Z,17.57
2022-10-17T01:07:18.105Z,17.57
2022-10-17T01:09:45.867Z,17.58
2022-10-17T01:12:25.796Z,17.60
2022-10-17T01:15:20.390Z,17.60
2022-10-17T01:18:18.000Z,17.59
2022-10-17T01:21:02.072Z,17.56
2022-10-17T01:23:53.711Z,17.55
2022-10-17T01:26:45.504Z,17.54
2022-10-17T01:29:40.190Z,17.54
2022-10-17T01:32:24.051Z,17.56
2022-10-17T01:35:21.524Z,17.59
2022-10-17T01:37:48.773Z,17.60
2022-10-17T01:40:21.528Z,17.59
2022-10-17T01:42:57.868Z,17.58
2022-10-17T01:45:29.880Z,17.57
2022-10-17T01:48:00.453Z,17.56
2022-10-17T01:50:36.396Z,17.55
2022-10-17T01:53:08.051Z,17.54
2022-10-17T01:55:40.751Z,17.52
2022-10-17T01:58:14.739Z,17.50
2022-10-17T02:00:43.066Z,17.48
2022-10-17T02:03:13.578Z,17.47
2022-10-17T02:05:41.650Z,17.45
2022-10-17T02:08:08.558Z,17.42
2022-10-17T02:10:46.696Z,17.40
2022-10-17T02:13:41.278Z,17.38
2022-10-17T02:16:29.664Z,17.33
2022-10-17T02:19:08.560Z,17.32
2022-10-17T02:21:53.563Z,17.30
2022-10-17T02:24:33.687Z,17.28
2022-10-17T02:27:43.828Z,17.26
2022-10-17T02:30:26.958Z,17.26
2022-10-17T02:32:59.922Z,17.24
2022-10-17T02:35:30.525Z,17.24
2022-10-17T02:37:58.374Z,17.22
2022-10-17T02:40:25.877Z,17.21
2022-10-17T02:42:52.864Z,17.18
2022-10-17T02:45:19.910Z,17.18
2022-10-17T02:47:56.119Z,17.16
2022-10-17T02:50:46.413Z,17.14
2022-10-17T02:53:17.540Z,17.13
2022-10-17T02:55:50.365Z,17.13
2022-10-17T02:58:21.730Z,17.12
2022-10-17T03:00:48.818Z,17.12
2022-10-17T03:03:20.774Z,17.11
2022-10-17T03:05:47.475Z,17.11
2022-10-17T03:08:14.290Z,17.11
2022-10-17T03:10:41.028Z,17.11
2022-10-17T03:13:07.746Z,17.10
2022-10-17T03:15:34.468Z,17.11
2022-10-17T03:18:01.405Z,17.10
2022-10-17T03:20:28.260Z,17.10
2022-10-17T03:22:54.988Z,17.10
2022-10-17T03:25:21.674Z,17.11
2022-10-17T03:27:48.393Z,17.09
2022-10-17T03:30:15.239Z,17.09
2022-10-17T03:32:41.925Z,17.09
2022-10-17T03:35:14.026Z,17.08
2022-10-17T03:37:41.942Z,17.06
2022-10-17T03:40:08.961Z,17.05
2022-10-17T03:42:35.699Z,17.03
2022-10-17T03:45:02.475Z,17.01
2022-10-17T03:47:29.524Z,17.03
2022-10-17T03:49:56.373Z,17.01
2022-10-17T03:52:23.099Z,17.03
2022-10-17T03:54:51.052Z,17.04
2022-10-17T03:57:19.019Z,17.02
2022-10-17T03:59:45.727Z,17.00
2022-10-17T04:02:12.466Z,17.00
2022-10-17T04:04:39.139Z,17.00
2022-10-17T04:07:05.837Z,17.00
2022-10-17T04:09:32.521Z,17.01
2022-10-17T04:11:59.237Z,17.01
2022-10-17T04:14:25.997Z,16.99
2022-10-17T04:16:53.489Z,16.99
2022-10-17T04:19:20.243Z,16.98
2022-10-17T04:21:47.113Z,16.97
2022-10-17T04:24:13.792Z,16.97
2022-10-17T04:26:40.512Z,16.96
2022-10-17T04:29:07.228Z,16.95
2022-10-17T04:31:33.986Z,16.93
2022-10-17T04:34:00.711Z,16.92
2022-10-17T04:36:27.407Z,16.91
2022-10-17T04:38:54.392Z,16.89
2022-10-17T04:41:21.242Z,16.89
2022-10-17T04:43:50.973Z,16.87
2022-10-17T04:46:18.262Z,16.86
2022-10-17T04:48:44.989Z,16.86
2022-10-17T04:51:13.803Z,16.86
2022-10-17T04:53:41.726Z,16.86
2022-10-17T04:56:10.490Z,16.85
2022-10-17T04:58:38.088Z,16.87
2022-10-17T05:01:10.350Z,16.89
2022-10-17T05:03:37.341Z,16.90
2022-10-17T05:06:09.004Z,16.91
2022-10-17T05:08:36.137Z,16.93
2022-10-17T05:11:03.349Z,16.95
2022-10-17T05:13:30.075Z,16.97
2022-10-17T05:16:02.860Z,17.00
2022-10-17T05:18:29.560Z,17.01
2022-10-17T05:20:57.179Z,17.05
2022-10-17T05:23:23.916Z,17.08
2022-10-17T05:25:55.564Z,17.10
2022-10-17T05:28:22.939Z,17.12
2022-10-17T05:30:49.885Z,17.16
2022-10-17T05:33:16.615Z,17.18
2022-10-17T05:35:43.350Z,17.20
2022-10-17T05:38:10.037Z,17.21
2022-10-17T05:40:38.456Z,17.23
2022-10-17T05:43:05.378Z,17.24
2022-10-17T05:45:32.238Z,17.25
2022-10-17T05:47:58.981Z,17.26
2022-10-17T05:50:25.703Z,17.26
2022-10-17T05:52:55.764Z,17.29
2022-10-17T05:55:22.877Z,17.30
2022-10-17T05:57:52.486Z,17.34
2022-10-17T06:00:19.997Z,17.36
2022-10-17T06:02:47.173Z,17.37
2022-10-17T06:05:14.297Z,17.38
2022-10-17T06:07:41.157Z,17.38
2022-10-17T06:10:08.273Z,17.40
2022-10-17T06:12:35.039Z,17.42
2022-10-17T06:15:01.781Z,17.43
2022-10-17T06:17:30.203Z,17.46
2022-10-17T06:19:57.386Z,17.48
2022-10-17T06:22:24.101Z,17.52
2022-10-17T06:24:52.521Z,17.56
2022-10-17T06:27:19.801Z,17.61
2022-10-17T06:29:47.550Z,17.65
2022-10-17T06:32:15.320Z,17.68
2022-10-17T06:34:42.163Z,17.73
2022-10-17T06:37:08.843Z,17.79
2022-10-17T06:39:35.819Z,17.84
2022-10-17T06:42:03.576Z,17.89
2022-10-17T06:44:31.458Z,17.95
2022-10-17T06:46:59.418Z,18.00
2022-10-17T06:49:26.710Z,18.06
2022-10-17T06:51:53.749Z,18.11
2022-10-17T06:54:20.598Z,18.19
2022-10-17T06:56:47.345Z,18.25
2022-10-17T06:59:15.474Z,18.33
2022-10-17T07:01:46.123Z,18.42
2022-10-17T07:04:14.308Z,18.49
2022-10-17T07:06:41.013Z,18.57
2022-10-17T07:09:07.714Z,18.65
2022-10-17T07:11:37.202Z,18.72
2022-10-17T07:14:04.181Z,18.78
2022-10-17T07:16:30.890Z,18.85
2022-10-17T07:18:57.600Z,18.87
2022-10-17T07:21:24.355Z,18.92
2022-10-17T07:23:51.064Z,18.98
2022-10-17T07:26:18.536Z,19.02
2022-10-17T07:28:46.805Z,19.08
2022-10-17T07:31:16.305Z,19.14
2022-10-17T07:33:44.068Z,19.22
2022-10-17T07:36:11.351Z,19.34
2022-10-17T07:38:38.643Z,19.45
2022-10-17T07:41:06.688Z,19.53
2022-10-17T07:43:33.800Z,19.64
2022-10-17T07:46:01.365Z,19.77
2022-10-17T07:48:28.057Z,19.86
2022-10-17T07:50:54.820Z,19.97
2022-10-17T07:53:21.546Z,20.06
2022-10-17T07:55:49.987Z,20.16
2022-10-17T07:58:16.934Z,20.25
2022-10-17T08:00:43.778Z,20.33
2022-10-17T08:03:10.898Z,20.41
2022-10-17T08:05:37.665Z,20.46
2022-10-17T08:08:04.439Z,20.50
2022-10-17T08:10:31.161Z,20.54
2022-10-17T08:12:58.434Z,20.57
2022-10-17T08:15:29.392Z,20.61
2022-10-17T08:17:58.696Z,20.62
2022-10-17T08:20:25.412Z,20.68
2022-10-17T08:22:55.473Z,20.72
2022-10-17T08:25:22.847Z,20.76
2022-10-17T08:27:49.834Z,20.81
2022-10-17T08:30:16.871Z,20.85
2022-10-17T08:32:43.720Z,20.90
2022-10-17T08:35:10.585Z,20.95
2022-10-17T08:37:37.298Z,21.02
2022-10-17T08:40:04.588Z,21.09
2022-10-17T08:42:46.452Z,21.15
2022-10-17T08:45:44.255Z,21.21
2022-10-17T08:48:14.619Z,21.27
2022-10-17T08:50:50.326Z,21.35
2022-10-17T08:53:26.872Z,21.43
2022-10-17T08:55:55.015Z,21.49
2022-10-17T08:58:24.254Z,21.57
2022-10-17T09:01:30.617Z,21.66
2022-10-17T09:04:13.634Z,21.74
2022-10-17T09:07:05.604Z,21.83
2022-10-17T09:09:38.397Z,21.91
2022-10-17T09:12:16.092Z,21.98
2022-10-17T09:14:59.375Z,22.04
2022-10-17T09:17:43.048Z,22.12
2022-10-17T09:20:18.302Z,22.19
2022-10-17T09:23:02.825Z,22.24
2022-10-17T09:25:42.705Z,22.29
2022-10-17T09:28:38.199Z,22.37
2022-10-17T09:31:06.810Z,22.43
2022-10-17T09:33:53.729Z,22.47
2022-10-17T09:36:30.253Z,22.52
2022-10-17T09:39:00.271Z,22.56
2022-10-17T09:41:45.521Z,22.60
2022-10-17T09:44:31.684Z,22.64
2022-10-17T09:47:14.100Z,22.68
2022-10-17T09:49:46.823Z,22.72
2022-10-17T09:52:22.445Z,22.73
2022-10-17T09:54:51.699Z,22.81
2022-10-17T09:57:20.168Z,22.88
2022-10-17T10:00:00.262Z,22.94
2022-10-17T10:02:29.666Z,23.00
2022-10-17T10:05:06.106Z,23.07
2022-10-17T10:07:35.823Z,23.13
2022-10-17T10:10:05.502Z,23.17
2022-10-17T10:12:35.158Z,23.21
2022-10-17T10:15:01.866Z,23.26
2022-10-17T10:17:41.824Z,23.31
2022-10-17T10:20:28.696Z,23.36
2022-10-17T10:23:24.752Z,23.42
2022-10-17T10:25:55.339Z,23.45
2022-10-17T10:28:34.458Z,23.51
2022-10-17T10:31:04.632Z,23.58
2022-10-17T10:33:32.409Z,23.62
2022-10-17T10:36:04.680Z,23.67
2022-10-17T10:38:33.618Z,23.71
2022-10-17T10:41:08.492Z,23.75
2022-10-17T10:43:42.217Z,23.81
2022-10-17T10:46:17.290Z,23.85
2022-10-17T10:49:00.060Z,23.90
2022-10-17T10:51:43.149Z,23.93
2022-10-17T10:54:20.236Z,23.95
2022-10-17T10:56:52.688Z,23.96
2022-10-17T10:59:35.554Z,23.97
2022-10-17T11:02:14.510Z,23.97
2022-10-17T11:04:52.850Z,23.98
2022-10-17T11:07:28.511Z,23.98
2022-10-17T11:10:04.078Z,23.99
2022-10-17T11:12:35.605Z,24.03
2022-10-17T11:15:22.192Z,24.05
2022-10-17T11:17:56.937Z,24.09
2022-10-17T11:20:36.945Z,24.10
2022-10-17T11:23:31.444Z,24.15
2022-10-17T11:26:03.778Z,24.17
2022-10-17T11:28:30.832Z,24.22
2022-10-17T11:31:07.203Z,24.26
2022-10-17T11:33:47.241Z,24.29
2022-10-17T11:36:15.109Z,24.30
2022-10-17T11:38:51.199Z,24.30
2022-10-17T11:41:32.511Z,24.31
2022-10-17T11:44:09.031Z,24.33
2022-10-17T11:46:36.372Z,24.35
2022-10-17T11:49:17.426Z,24.39
2022-10-17T11:52:55.531Z,24.42
2022-10-17T11:55:29.400Z,24.48
2022-10-17T11:58:41.057Z,24.54
2022-10-17T12:01:16.069Z,24.63
2022-10-17T12:04:01.723Z,24.71
2022-10-17T12:06:34.499Z,24.75
2022-10-17T12:09:32.111Z,24.81
2022-10-17T12:12:02.408Z,24.81
2022-10-17T12:14:48.697Z,24.84
2022-10-17T12:17:29.175Z,24.84
2022-10-17T12:20:23.389Z,24.86
2022-10-17T12:22:52.556Z,24.88
2022-10-17T12:25:22.181Z,24.90
2022-10-17T12:27:50.116Z,24.93
2022-10-17T12:30:25.111Z,24.97
2022-10-17T12:33:05.704Z,24.99
2022-10-17T12:35:35.734Z,25.00
2022-10-17T12:38:23.644Z,25.00
2022-10-17T12:40:55.501Z,25.01
2022-10-17T12:43:28.268Z,25.00
2022-10-17T12:46:02.159Z,25.00
2022-10-17T12:48:34.755Z,25.00
2022-10-17T12:54:02.715Z,25.02
2022-10-17T12:56:38.739Z,25.04
2022-10-17T12:59:24.952Z,25.07
2022-10-17T13:01:56.605Z,25.11
2022-10-17T13:04:24.220Z,25.17
2022-10-17T13:06:58.645Z,25.20
2022-10-17T13:09:51.887Z,25.25
2022-10-17T13:12:24.062Z,25.28
2022-10-17T13:14:52.646Z,25.31
2022-10-17T13:17:22.278Z,25.33
2022-10-17T13:19:51.760Z,25.33
2022-10-17T13:22:24.335Z,25.34
2022-10-17T13:24:53.070Z,25.34
2022-10-17T13:27:25.722Z,25.35
2022-10-17T13:29:56.241Z,25.37
2022-10-17T13:32:24.934Z,25.37
2022-10-17T13:35:10.905Z,25.35
2022-10-17T13:37:40.022Z,25.35
2022-10-17T13:40:40.453Z,25.34
2022-10-17T13:43:02.022Z,25.33
2022-10-17T13:45:31.374Z,25.33
2022-10-17T13:48:06.830Z,25.33
2022-10-17T13:50:44.862Z,25.34
2022-10-17T13:53:29.488Z,25.38
2022-10-17T13:56:28.771Z,25.36
2022-10-17T13:58:59.329Z,25.37
2022-10-17T14:01:28.116Z,25.35
2022-10-17T14:04:07.687Z,25.32
2022-10-17T14:06:44.020Z,25.30
2022-10-17T14:09:32.161Z,25.26
2022-10-17T14:12:02.793Z,25.25
2022-10-17T14:14:32.129Z,25.23
2022-10-17T14:17:13.574Z,25.22
2022-10-17T14:19:40.408Z,25.20
2022-10-17T14:22:17.430Z,25.19
2022-10-17T14:24:44.628Z,25.18
2022-10-17T14:27:31.473Z,25.15
2022-10-17T14:30:03.547Z,25.13
2022-10-17T14:35:24.369Z,25.11
2022-10-17T14:37:54.273Z,25.09
2022-10-17T14:40:25.199Z,25.09
2022-10-17T14:42:54.028Z,25.07
2022-10-17T14:45:27.338Z,25.06
2022-10-17T14:47:55.728Z,25.04
2022-10-17T14:50:25.482Z,25.02
2022-10-17T14:53:10.588Z,25.01
2022-10-17T14:55:39.387Z,24.99
2022-10-17T14:58:17.013Z,24.99
2022-10-17T15:00:43.736Z,24.96
2022-10-17T15:03:10.476Z,24.96
2022-10-17T15:05:37.297Z,24.96
2022-10-17T15:08:03.999Z,24.93
2022-10-17T15:10:36.424Z,24.92
2022-10-17T15:13:26.572Z,24.92
2022-10-17T15:15:51.937Z,24.89
2022-10-17T15:18:18.991Z,24.88
2022-10-17T15:20:45.674Z,24.84
2022-10-17T15:23:12.509Z,24.81
2022-10-17T15:25:39.744Z,24.78
2022-10-17T15:28:06.442Z,24.77
2022-10-17T15:30:36.385Z,24.75
2022-10-17T15:33:03.501Z,24.72
2022-10-17T15:35:30.347Z,24.70
2022-10-17T15:37:57.178Z,24.67
2022-10-17T15:40:28.101Z,24.64
2022-10-17T15:42:56.305Z,24.61
2022-10-17T15:45:23.638Z,24.57
2022-10-17T15:47:52.693Z,24.53
2022-10-17T15:50:20.315Z,24.50
2022-10-17T15:52:47.227Z,24.48
2022-10-17T15:55:13.984Z,24.45
2022-10-17T15:57:43.225Z,24.42
2022-10-17T16:00:16.909Z,24.36
2022-10-17T16:02:43.957Z,24.33
2022-10-17T16:05:29.110Z,24.31
2022-10-17T16:07:56.721Z,24.27
2022-10-17T16:10:25.431Z,24.24
2022-10-17T16:12:52.136Z,24.22
2022-10-17T16:15:25.047Z,24.19
2022-10-17T16:17:52.755Z,24.17
2022-10-17T16:20:20.323Z,24.17
2022-10-17T16:22:47.675Z,24.15
2022-10-17T16:25:19.500Z,24.12
2022-10-17T16:27:47.533Z,24.10
2022-10-17T16:30:14.353Z,24.09
2022-10-17T16:32:41.081Z,24.06
2022-10-17T16:35:08.356Z,24.04
2022-10-17T16:37:35.860Z,24.02
2022-10-17T16:40:04.309Z,23.97
2022-10-17T16:42:31.197Z,23.90
2022-10-17T16:44:58.274Z,23.80
2022-10-17T16:47:25.021Z,23.73
2022-10-17T16:49:51.739Z,23.69
2022-10-17T16:52:18.433Z,23.64
2022-10-17T16:54:45.278Z,23.60
2022-10-17T16:57:12.041Z,23.53
2022-10-17T16:59:38.737Z,23.50
2022-10-17T17:02:05.646Z,23.47
2022-10-17T17:04:32.344Z,23.45
2022-10-17T17:06:59.056Z,23.41
2022-10-17T17:09:25.786Z,23.39
2022-10-17T17:11:52.564Z,23.38
2022-10-17T17:14:19.336Z,23.37
2022-10-17T17:16:46.120Z,23.37
2022-10-17T17:19:15.038Z,23.37
2022-10-17T17:21:47.472Z,23.35
2022-10-17T17:24:14.183Z,23.35
2022-10-17T17:26:41.508Z,23.34
2022-10-17T17:29:09.476Z,23.32
2022-10-17T17:31:38.836Z,23.32
2022-10-17T17:34:05.832Z,23.31
2022-10-17T17:36:34.409Z,23.29
2022-10-17T17:39:03.950Z,23.28
2022-10-17T17:41:30.741Z,23.28
2022-10-17T17:43:57.504Z,23.25
2022-10-17T17:46:25.001Z,23.22
2022-10-17T17:48:52.958Z,23.20
2022-10-17T17:51:26.899Z,23.18
2022-10-17T17:53:56.545Z,23.17
2022-10-17T17:56:28.319Z,23.15
2022-10-17T17:58:57.468Z,23.16
2022-10-17T18:01:27.632Z,23.11
2022-10-17T18:03:55.580Z,23.08
2022-10-17T18:06:22.954Z,23.03
2022-10-17T18:08:52.936Z,23.00
2022-10-17T18:11:21.990Z,22.98
2022-10-17T18:13:56.771Z,22.93
2022-10-17T18:16:24.088Z,22.88
2022-10-17T18:18:50.812Z,22.87
2022-10-17T18:21:17.961Z,22.85
2022-10-17T18:23:46.182Z,22.84
2022-10-17T18:26:14.345Z,22.81
2022-10-17T18:31:18.901Z,22.77
2022-10-17T18:33:46.075Z,22.78
2022-10-17T18:36:14.792Z,22.79
2022-10-17T18:38:41.797Z,22.78
2022-10-17T18:41:11.405Z,22.78
2022-10-17T18:43:39.866Z,22.78
2022-10-17T18:46:15.523Z,22.77
2022-10-17T18:48:47.082Z,22.77
2022-10-17T18:51:15.818Z,22.74
2022-10-17T18:53:44.571Z,22.73
2022-10-17T18:56:11.937Z,22.70
2022-10-17T18:58:39.637Z,22.69
2022-10-17T19:01:18.040Z,22.65
2022-10-17T19:03:46.283Z,22.62
2022-10-17T19:06:14.380Z,22.61
2022-10-17T19:08:41.818Z,22.58
2022-10-17T19:11:28.335Z,22.54
2022-10-17T19:14:03.240Z,22.52
2022-10-17T19:16:33.270Z,22.49
2022-10-17T19:19:03.261Z,22.47
2022-10-17T19:21:30.239Z,22.45
2022-10-17T19:23:59.399Z,22.42
2022-10-17T19:26:27.746Z,22.41
2022-10-17T19:28:54.581Z,22.37
2022-10-17T19:31:26.525Z,22.35
2022-10-17T19:33:54.778Z,22.32
2022-10-17T19:36:25.385Z,22.31
2022-10-17T19:38:55.456Z,22.30
2022-10-17T19:41:22.713Z,22.28
2022-10-17T19:43:49.598Z,22.28
2022-10-17T19:46:18.445Z,22.26
2022-10-17T19:48:45.607Z,22.26
2022-10-17T19:51:15.614Z,22.26
2022-10-17T19:53:42.798Z,22.23
2022-10-17T19:56:10.615Z,22.20
2022-10-17T19:58:44.453Z,22.18
2022-10-17T20:01:13.766Z,22.17
2022-10-17T20:03:40.605Z,22.16
2022-10-17T20:06:07.912Z,22.14
2022-10-17T20:08:34.744Z,22.14
2022-10-17T20:11:07.308Z,22.12
2022-10-17T20:13:37.358Z,22.11
2022-10-17T20:16:05.966Z,22.12
2022-10-17T20:18:33.080Z,22.12
2022-10-17T20:21:08.940Z,22.12
2022-10-17T20:23:36.263Z,22.13
2022-10-17T20:26:08.690Z,22.11
2022-10-17T20:28:52.368Z,22.11
2022-10-17T20:31:19.561Z,22.13
2022-10-17T20:33:46.354Z,22.12
2022-10-17T20:36:14.494Z,22.12
2022-10-17T20:38:41.202Z,22.12
2022-10-17T20:41:09.417Z,22.14
2022-10-17T20:43:37.844Z,22.13
2022-10-17T20:46:22.796Z,22.14
2022-10-17T20:48:54.310Z,22.13
2022-10-17T20:51:21.320Z,22.12
2022-10-17T20:53:48.499Z,22.11
2022-10-17T20:56:21.951Z,22.11
2022-10-17T20:58:56.564Z,22.11
2022-10-17T21:01:24.396Z,22.12
2022-10-17T21:03:51.253Z,22.10
2022-10-17T21:06:18.740Z,22.11
2022-10-17T21:08:46.711Z,22.10
2022-10-17T21:11:14.865Z,22.11
2022-10-17T21:13:44.311Z,22.10
2022-10-17T21:16:13.080Z,22.10
2022-10-17T21:18:40.411Z,22.10
2022-10-17T21:21:18.701Z,22.08
2022-10-17T21:23:47.450Z,22.08
2022-10-17T21:26:14.890Z,22.06
2022-10-17T21:28:43.104Z,22.05
2022-10-17T21:31:11.334Z,22.06
2022-10-17T21:33:38.375Z,22.05
2022-10-17T21:36:05.370Z,22.03
2022-10-17T21:38:32.134Z,22.03
2022-10-17T21:40:58.825Z,22.01
2022-10-17T21:43:25.529Z,21.99
2022-10-17T21:45:52.216Z,21.98
2022-10-17T21:48:19.013Z,21.98
2022-10-17T21:50:45.802Z,21.96
2022-10-17T21:53:12.540Z,21.94
2022-10-17T21:55:39.267Z,21.89
2022-10-17T21:58:06.028Z,21.88
2022-10-17T22:00:32.744Z,21.86
2022-10-17T22:03:01.062Z,21.87
2022-10-17T22:05:27.829Z,21.85
2022-10-17T22:07:54.522Z,21.85
2022-10-17T22:10:21.533Z,21.84
2022-10-17T22:12:48.233Z,21.85
2022-10-17T22:17:46.592Z,21.85
2022-10-17T22:20:13.305Z,21.84
2022-10-17T22:22:40.006Z,21.82
2022-10-17T22:25:07.043Z,21.81
2022-10-17T22:27:33.792Z,21.78
2022-10-17T22:30:00.493Z,21.75
2022-10-17T22:32:27.205Z,21.72
2022-10-17T22:34:53.886Z,21.70
2022-10-17T22:37:20.612Z,21.69
2022-10-17T22:39:47.364Z,21.67
2022-10-17T22:42:14.106Z,21.65
2022-10-17T22:44:40.924Z,21.64
2022-10-17T22:47:07.650Z,21.63
2022-10-17T22:49:34.333Z,21.62
2022-10-17T22:52:01.075Z,21.60
2022-10-17T22:54:27.782Z,21.60
2022-10-17T22:56:54.505Z,21.59
2022-10-17T22:59:21.350Z,21.59
2022-10-17T23:01:48.063Z,21.59
2022-10-17T23:04:14.816Z,21.56
2022-10-17T23:06:41.518Z,21.56
2022-10-17T23:09:08.231Z,21.54
2022-10-17T23:11:34.912Z,21.52
2022-10-17T23:14:01.667Z,21.51
2022-10-17T23:16:30.862Z,21.49
2022-10-17T23:18:57.865Z,21.45
2022-10-17T23:21:24.565Z,21.44
2022-10-17T23:23:51.249Z,21.43
2022-10-17T23:26:17.996Z,21.42
2022-10-17T23:28:44.719Z,21.42
2022-10-17T23:31:19.388Z,21.42
2022-10-17T23:33:47.744Z,21.41
2022-10-17T23:36:17.283Z,21.42
2022-10-17T23:38:45.128Z,21.41
2022-10-17T23:41:12.357Z,21.40
2022-10-17T23:43:39.053Z,21.40
2022-10-17T23:46:06.586Z,21.40
2022-10-17T23:48:33.639Z,21.39
2022-10-17T23:51:00.315Z,21.39
2022-10-17T23:53:27.104Z,21.37
2022-10-17T23:55:53.801Z,21.37
2022-10-17T23:58:20.729Z,21.36
